Time;durP1;ratioP1;P1;durP2;ratioP2;P2;SDS_P1;SDS_P2;PMS_P1;PMS_P2;Temp;Humidity;BMP_temperature;BMP_pressure;BME280_temperature;BME280_humidity;BME280_pressure;Samples;Min_cycle;Max_cycle;Signal;HPM_P1;HPM_P2
2023/09/28 00:02:34;;;;;;;;;;;;;;;20.25;50.72;100902.91;5425925;32;34165;-80
2023/09/28 00:05:37;;;;;;;;;;;;;;;20.50;50.23;100899.38;5431686;32;34175;-80
2023/09/28 00:08:39;;;;;;;;;;;;;;;20.18;50.99;100901.66;5429738;32;34385;-79
2023/09/28 00:11:41;;;;;;;;;;;;;;;19.51;53.10;100898.28;5430757;32;34009;-79
2023/09/28 00:14:43;;;;;;;;;;;;;;;19.56;53.47;100902.34;5405176;32;35243;-79
2023/09/28 00:17:48;;;;;;;;;;;;;;;20.09;51.98;100892.44;5429845;32;33871;-79
2023/09/28 00:20:51;;;;;;;;;;;;;;;19.13;54.20;100897.28;5431569;32;34144;-80
2023/09/28 00:23:54;;;;;;;;;;;;;;;20.10;51.79;100896.00;5429199;32;34382;-79
2023/09/28 00:26:56;;;;;;;;;;;;;;;18.94;54.84;100896.78;5430671;32;34151;-80
2023/09/28 00:29:58;;;;;;;;;;;;;;;19.11;54.62;100895.66;5406003;32;32957;-80
2023/09/28 00:33:01;;;;;;;;;;;;;;;19.93;52.22;100899.84;5416417;32;35037;-79
2023/09/28 00:36:03;;;;;;;;;;;;;;;20.21;51.17;100898.75;5429299;32;34000;-80
2023/09/28 00:39:08;;;;;;;;;;;;;;;19.26;54.20;100896.47;5429961;32;33337;-79
2023/09/28 00:42:10;;;;;;;;;;;;;;;19.40;53.64;100899.88;5430925;32;34176;-80
2023/09/28 00:45:13;;;;;;;;;;;;;;;19.93;52.13;100906.03;5429617;32;34219;-80
2023/09/28 00:48:15;;;;;;;;;;;;;;;19.04;55.16;100908.53;5413758;32;34325;-80
2023/09/28 00:51:19;;;;;;;;;;;;;;;19.69;53.30;100905.06;5428607;32;35425;-80
2023/09/28 00:54:21;;;;;;;;;;;;;;;19.90;52.39;100900.94;5429339;32;34141;-79
2023/09/28 00:57:23;;;;;;;;;;;;;;;20.05;52.29;100896.31;5429010;32;35326;-80
2023/09/28 01:00:28;;;;;;;;;;;;;;;18.83;54.61;100910.81;5429909;32;34077;-80
2023/09/28 01:03:31;;;;;;;;;;;;;;;18.92;55.26;100896.88;5414356;32;34146;-80
2023/09/28 01:06:36;;;;;;;;;;;;;;;19.12;54.92;100911.53;5429254;32;34285;-80
2023/09/28 01:09:38;;;;;;;;;;;;;;;18.82;55.43;100909.09;5415037;32;34489;-80
2023/09/28 01:12:41;;;;;;;;;;;;;;;18.57;55.44;100909.78;5428280;32;34123;-80
2023/09/28 01:15:43;;;;;;;;;;;;;;;18.92;55.57;100899.53;5429416;32;35396;-79
2023/09/28 01:18:46;;;;;;;;;;;;;;;18.27;57.27;100906.41;5430202;32;35122;-80
2023/09/28 01:21:48;;;;;;;;;;;;;;;18.47;56.03;100898.00;5427062;32;34119;-80
2023/09/28 01:24:50;;;;;;;;;;;;;;;18.19;56.73;100898.91;5429455;32;34051;-79
2023/09/28 01:27:54;;;;;;;;;;;;;;;18.37;57.00;100897.75;5427754;32;35628;-80
2023/09/28 01:30:56;;;;;;;;;;;;;;;19.09;54.63;100900.25;5428043;32;35246;-80
2023/09/28 01:33:59;;;;;;;;;;;;;;;18.25;56.83;100905.66;5413219;32;34947;-80
2023/09/28 01:37:01;;;;;;;;;;;;;;;18.54;56.40;100894.00;5429045;32;34025;-80
2023/09/28 01:40:07;;;;;;;;;;;;;;;18.52;56.36;100903.91;5430933;32;35657;-80
2023/09/28 01:43:10;;;;;;;;;;;;;;;18.43;56.61;100906.31;5426913;32;34736;-80
2023/09/28 01:46:12;;;;;;;;;;;;;;;18.78;55.75;100907.56;5430506;32;33082;-80
2023/09/28 01:49:14;;;;;;;;;;;;;;;19.21;54.52;100915.41;5424445;32;35517;-80
2023/09/28 01:52:17;;;;;;;;;;;;;;;19.34;54.14;100912.78;5411699;32;33862;-80
2023/09/28 01:55:19;;;;;;;;;;;;;;;19.61;53.45;100924.25;5421280;32;34272;-80
2023/09/28 01:58:21;;;;;;;;;;;;;;;19.00;55.52;100919.47;5428127;32;35628;-80
2023/09/28 02:01:26;;;;;;;;;;;;;;;19.10;55.08;100925.91;5415896;32;34246;-80
2023/09/28 02:04:28;;;;;;;;;;;;;;;18.58;56.92;100924.81;5428267;32;35466;-81
2023/09/28 02:07:32;;;;;;;;;;;;;;;18.11;58.24;100927.81;5430160;32;34741;-80
2023/09/28 02:10:35;;;;;;;;;;;;;;;18.92;56.21;100917.31;5427705;32;35276;-79
2023/09/28 02:13:37;;;;;;;;;;;;;;;19.47;54.32;100908.31;5415413;32;35345;-80
2023/09/28 02:16:39;;;;;;;;;;;;;;;18.50;57.13;100918.28;5428202;32;35289;-80
2023/09/28 02:19:41;;;;;;;;;;;;;;;18.76;56.71;100919.28;5409717;32;34780;-80
2023/09/28 02:22:44;;;;;;;;;;;;;;;17.86;59.26;100908.03;5415883;32;34276;-80
2023/09/28 02:25:47;;;;;;;;;;;;;;;17.65;60.55;100924.41;5408190;32;34132;-79
2023/09/28 02:28:50;;;;;;;;;;;;;;;18.58;57.55;100921.28;5429513;32;34427;-79
2023/09/28 02:31:52;;;;;;;;;;;;;;;18.47;57.60;100919.31;5427148;32;34108;-81
2023/09/28 02:34:54;;;;;;;;;;;;;;;18.51;57.61;100919.97;5429469;32;35000;-81
2023/09/28 02:37:57;;;;;;;;;;;;;;;18.53;57.72;100923.38;5428241;32;35445;-82
2023/09/28 02:40:59;;;;;;;;;;;;;;;17.84;59.87;100925.91;5426024;32;35515;-80
2023/09/28 02:44:01;;;;;;;;;;;;;;;17.93;59.95;100920.94;5427968;32;34689;-81
2023/09/28 02:47:05;;;;;;;;;;;;;;;18.41;58.10;100922.34;5425376;32;35216;-80
2023/09/28 02:50:09;;;;;;;;;;;;;;;18.60;58.04;100930.88;5416724;32;35393;-79
2023/09/28 02:53:11;;;;;;;;;;;;;;;18.94;56.88;100920.75;5428116;32;34205;-79
2023/09/28 02:56:14;;;;;;;;;;;;;;;19.12;56.03;100914.19;5415227;32;34345;-80
2023/09/28 02:59:17;;;;;;;;;;;;;;;18.96;56.50;100918.00;5430606;32;34428;-79
2023/09/28 03:02:20;;;;;;;;;;;;;;;18.29;58.55;100913.34;5430155;32;33806;-80
2023/09/28 03:05:22;;;;;;;;;;;;;;;18.36;58.77;100913.81;5432519;32;35371;-80
2023/09/28 03:08:25;;;;;;;;;;;;;;;17.90;60.15;100915.81;5427484;32;33204;-79
2023/09/28 03:11:27;;;;;;;;;;;;;;;17.87;60.18;100909.72;5431708;32;34057;-82
2023/09/28 03:14:29;;;;;;;;;;;;;;;18.41;58.49;100915.22;5429551;32;34368;-81
2023/09/28 03:17:31;;;;;;;;;;;;;;;18.74;57.38;100910.53;5430639;32;33338;-81
2023/09/28 03:20:34;;;;;;;;;;;;;;;18.40;58.53;100916.19;5431362;32;35403;-79
2023/09/28 03:23:36;;;;;;;;;;;;;;;18.20;58.88;100918.37;5428349;32;33970;-80
2023/09/28 03:26:38;;;;;;;;;;;;;;;18.71;57.29;100927.56;5432225;32;34277;-80
2023/09/28 03:29:41;;;;;;;;;;;;;;;18.67;57.71;100926.03;5429663;32;34354;-80
2023/09/28 03:32:44;;;;;;;;;;;;;;;18.71;57.61;100938.22;5427852;32;35379;-80
2023/09/28 03:35:49;;;;;;;;;;;;;;;18.00;60.33;100940.91;5428783;32;33876;-81
2023/09/28 03:38:52;;;;;;;;;;;;;;;17.60;61.73;100943.28;5407324;32;34326;-81
2023/09/28 03:41:54;;;;;;;;;;;;;;;17.77;61.54;100945.78;5418038;32;34165;-82
2023/09/28 03:44:58;;;;;;;;;;;;;;;17.97;60.86;100944.63;5430083;32;34324;-81
2023/09/28 03:48:00;;;;;;;;;;;;;;;17.89;61.49;100938.87;5430867;32;34140;-81
2023/09/28 03:51:02;;;;;;;;;;;;;;;18.06;60.75;100951.16;5413232;32;33950;-83
2023/09/28 03:54:05;;;;;;;;;;;;;;;18.32;60.12;100944.22;5429272;32;36978;-82
2023/09/28 03:57:08;;;;;;;;;;;;;;;17.53;62.85;100957.88;5429758;32;33919;-80
2023/09/28 04:00:12;;;;;;;;;;;;;;;17.76;62.77;100949.41;5429586;32;34166;-82
2023/09/28 04:03:14;;;;;;;;;;;;;;;18.29;60.31;100950.62;5431417;32;34751;-80
2023/09/28 04:06:18;;;;;;;;;;;;;;;17.75;62.10;100945.03;5415069;32;34290;-80
2023/09/28 04:09:20;;;;;;;;;;;;;;;17.56;63.42;100955.03;5430033;32;33503;-80
2023/09/28 04:12:22;;;;;;;;;;;;;;;17.53;63.09;100963.19;5412718;32;33984;-81
2023/09/28 04:15:24;;;;;;;;;;;;;;;18.26;60.55;100957.91;5427089;32;34168;-79
2023/09/28 04:18:27;;;;;;;;;;;;;;;17.37;64.15;100968.53;5414568;32;34613;-79
2023/09/28 04:21:29;;;;;;;;;;;;;;;17.68;62.34;100956.97;5429951;32;33561;-80
2023/09/28 04:24:31;;;;;;;;;;;;;;;18.41;60.12;100951.63;5432078;32;34138;-81
2023/09/28 04:27:34;;;;;;;;;;;;;;;18.24;60.38;100957.16;5430284;32;33783;-80
2023/09/28 04:30:36;;;;;;;;;;;;;;;18.25;60.40;100964.19;5431597;32;34037;-80
2023/09/28 04:33:38;;;;;;;;;;;;;;;17.92;61.43;100956.47;5428431;32;34107;-82
2023/09/28 04:36:40;;;;;;;;;;;;;;;17.64;62.60;100963.38;5413135;32;35099;-81
2023/09/28 04:39:44;;;;;;;;;;;;;;;17.99;61.78;100968.44;5413982;32;34178;-81
2023/09/28 04:42:52;;;;;;;;;;;;;;;17.94;61.87;100968.72;5411918;32;34051;-81
2023/09/28 04:45:54;;;;;;;;;;;;;;;18.30;60.68;100959.44;5430958;32;35441;-81
2023/09/28 04:48:57;;;;;;;;;;;;;;;18.27;60.91;100970.25;5417155;32;33971;-80
2023/09/28 04:51:59;;;;;;;;;;;;;;;18.54;59.54;100976.50;5429734;32;35513;-81
2023/09/28 04:55:01;;;;;;;;;;;;;;;18.18;61.11;100970.84;5427582;32;35547;-81
2023/09/28 04:58:05;;;;;;;;;;;;;;;17.41;63.60;100979.84;5430689;32;34849;-80
2023/09/28 05:01:07;;;;;;;;;;;;;;;17.60;63.30;100989.31;5413774;32;35828;-81
2023/09/28 05:04:11;;;;;;;;;;;;;;;18.10;61.60;100976.63;5411398;32;34442;-81
2023/09/28 05:07:13;;;;;;;;;;;;;;;18.39;60.08;100965.03;5427334;32;35468;-79
2023/09/28 05:10:16;;;;;;;;;;;;;;;18.06;61.34;100975.97;5427227;32;34208;-80
2023/09/28 05:13:18;;;;;;;;;;;;;;;18.11;61.58;100981.84;5426052;32;33577;-80
2023/09/28 05:16:20;;;;;;;;;;;;;;;18.06;61.54;100977.75;5428744;32;34037;-81
2023/09/28 05:19:22;;;;;;;;;;;;;;;18.58;60.00;100980.72;5412858;32;32811;-81
2023/09/28 05:22:26;;;;;;;;;;;;;;;18.95;58.53;100975.75;5429544;32;34207;-81
2023/09/28 05:25:28;;;;;;;;;;;;;;;19.19;57.92;100981.25;5426102;32;34279;-80
2023/09/28 05:28:33;;;;;;;;;;;;;;;19.38;57.23;100988.88;5430914;32;35067;-82
2023/09/28 05:31:35;;;;;;;;;;;;;;;19.02;58.65;100992.19;5428147;32;34152;-80
2023/09/28 05:34:38;;;;;;;;;;;;;;;18.81;59.59;101000.59;5429268;32;34347;-80
2023/09/28 05:37:40;;;;;;;;;;;;;;;19.81;56.01;100997.56;5428467;32;34270;-83
2023/09/28 05:40:42;;;;;;;;;;;;;;;20.11;55.09;100999.09;5416366;32;34435;-81
2023/09/28 05:43:45;;;;;;;;;;;;;;;20.23;54.66;100995.59;5412146;32;35285;-82
2023/09/28 05:46:48;;;;;;;;;;;;;;;20.32;54.26;100986.06;5413887;32;35394;-85
2023/09/28 05:49:52;;;;;;;;;;;;;;;20.44;54.24;100982.53;5411917;32;34939;-82
2023/09/28 05:52:56;;;;;;;;;;;;;;;21.07;52.01;100973.53;5413499;32;36308;-82
2023/09/28 05:55:58;;;;;;;;;;;;;;;21.27;51.68;100986.28;5396008;32;34176;-81
2023/09/28 05:59:00;;;;;;;;;;;;;;;21.65;50.40;100987.09;5402644;32;34146;-83
2023/09/28 06:02:02;;;;;;;;;;;;;;;20.93;52.13;100995.06;5410245;32;35121;-83
2023/09/28 06:05:05;;;;;;;;;;;;;;;20.98;51.21;101004.44;5407719;32;33949;-83
2023/09/28 06:08:13;;;;;;;;;;;;;;;20.57;53.18;100993.25;5394038;32;33875;-81
2023/09/28 06:11:22;;;;;;;;;;;;;;;21.11;52.16;101004.41;5399513;32;34104;-81
2023/09/28 06:14:26;;;;;;;;;;;;;;;21.86;49.53;101001.50;5407305;32;32659;-85
2023/09/28 06:17:39;;;;;;;;;;;;;;;21.95;49.20;100999.91;5407509;32;33974;-84
2023/09/28 06:20:42;;;;;;;;;;;;;;;21.83;49.67;101013.28;5410613;32;34895;-82
2023/09/28 06:23:48;;;;;;;;;;;;;;;22.85;47.26;100998.16;5396477;32;34294;-81
2023/09/28 06:26:53;;;;;;;;;;;;;;;22.40;48.01;100995.50;5413489;32;35530;-84
2023/09/28 06:29:56;;;;;;;;;;;;;;;23.12;46.17;100998.66;5409948;32;35792;-84
2023/09/28 06:32:58;;;;;;;;;;;;;;;23.40;44.60;101004.41;5398949;32;35571;-83
2023/09/28 06:36:04;;;;;;;;;;;;;;;23.33;44.85;101004.06;5399489;32;35752;-88
2023/09/28 06:39:09;;;;;;;;;;;;;;;24.95;41.09;101002.66;5414657;32;34857;-86
2023/09/28 06:42:12;;;;;;;;;;;;;;;24.26;42.52;101000.66;5407252;32;33549;-84
2023/09/28 06:45:34;;;;;;;;;;;;;;;24.74;41.48;100998.22;5409964;32;34819;-82
2023/09/28 06:48:37;;;;;;;;;;;;;;;22.76;46.10;101004.28;5411879;32;34307;-84
2023/09/28 06:51:40;;;;;;;;;;;;;;;24.50;41.75;101008.44;5413643;32;34180;-81
2023/09/28 06:54:42;;;;;;;;;;;;;;;25.16;39.94;101007.97;5408706;32;35274;-81
2023/09/28 06:57:44;;;;;;;;;;;;;;;23.21;43.66;101015.81;5406879;32;173134;-84
2023/09/28 07:00:47;;;;;;;;;;;;;;;24.69;40.60;101005.84;5412052;32;35435;-82
2023/09/28 07:03:52;;;;;;;;;;;;;;;26.44;37.20;101010.31;5390418;32;34977;-88
2023/09/28 07:06:55;;;;;;;;;;;;;;;25.07;39.55;101015.03;5412316;32;35318;-80
2023/09/28 07:10:00;;;;;;;;;;;;;;;23.98;41.76;101027.22;5412915;32;34150;-82
2023/09/28 07:13:04;;;;;;;;;;;;;;;23.90;41.86;101026.19;5417977;32;35061;-81
2023/09/28 07:16:08;;;;;;;;;;;;;;;25.31;38.96;101022.69;5410564;32;34545;-84
2023/09/28 07:19:11;;;;;;;;;;;;;;;25.52;38.57;101020.75;5414381;32;32630;-80
2023/09/28 07:22:15;;;;;;;;;;;;;;;25.51;38.77;101028.97;5417131;32;33735;-81
2023/09/28 07:25:19;;;;;;;;;;;;;;;26.63;36.41;101025.56;5406881;32;34170;-84
2023/09/28 07:28:21;;;;;;;;;;;;;;;27.33;35.31;101028.59;5405856;32;34606;-81
2023/09/28 07:31:24;;;;;;;;;;;;;;;27.53;34.77;101026.59;5394908;32;35803;-84
2023/09/28 07:34:29;;;;;;;;;;;;;;;26.67;36.37;101037.75;5410555;32;35430;-84
2023/09/28 07:37:32;;;;;;;;;;;;;;;27.89;34.06;101029.31;5413138;32;34968;-86
2023/09/28 07:40:35;;;;;;;;;;;;;;;27.12;35.32;101025.34;5397709;32;34090;-81
2023/09/28 07:43:45;;;;;;;;;;;;;;;27.32;35.50;101032.31;5394388;32;34528;-81
2023/09/28 07:46:47;;;;;;;;;;;;;;;28.62;33.18;101026.25;5412258;32;35531;-80
2023/09/28 07:49:52;;;;;;;;;;;;;;;29.33;31.36;101029.41;5398032;32;35252;-80
2023/09/28 07:52:54;;;;;;;;;;;;;;;28.01;33.53;101033.44;5398441;32;34615;-79
2023/09/28 07:55:56;;;;;;;;;;;;;;;25.36;38.46;101039.28;5409310;32;33953;-79
2023/09/28 07:58:59;;;;;;;;;;;;;;;24.90;39.65;101037.16;5408017;32;35013;-81
2023/09/28 08:02:02;;;;;;;;;;;;;;;25.05;39.71;101035.81;5399960;32;34179;-81
2023/09/28 08:05:06;;;;;;;;;;;;;;;23.54;42.55;101044.34;5412975;32;34746;-82
2023/09/28 08:08:11;;;;;;;;;;;;;;;23.23;43.58;101037.97;5413272;32;33999;-77
2023/09/28 08:11:19;;;;;;;;;;;;;;;22.45;45.75;101046.87;5398102;32;35367;-75
2023/09/28 08:14:21;;;;;;;;;;;;;;;22.90;45.00;101044.25;5408100;32;36196;-76
2023/09/28 08:17:24;;;;;;;;;;;;;;;23.54;43.34;101044.34;5396545;32;34838;-80
2023/09/28 08:20:26;;;;;;;;;;;;;;;22.76;45.67;101037.28;5405573;32;35520;-76
2023/09/28 08:23:29;;;;;;;;;;;;;;;22.14;46.68;101046.59;5407208;32;33626;-78
2023/09/28 08:26:31;;;;;;;;;;;;;;;22.27;47.00;101042.97;5404172;32;34509;-78
2023/09/28 08:29:34;;;;;;;;;;;;;;;22.65;45.89;101035.44;5390667;32;35085;-81
2023/09/28 08:32:37;;;;;;;;;;;;;;;23.77;43.32;101040.63;5411958;32;33920;-81
2023/09/28 08:35:39;;;;;;;;;;;;;;;23.20;44.82;101031.03;5392741;32;33838;-81
2023/09/28 08:38:42;;;;;;;;;;;;;;;23.76;43.61;101030.00;5412838;32;34114;-80
2023/09/28 08:41:44;;;;;;;;;;;;;;;23.09;45.09;101032.88;5410565;32;35687;-85
2023/09/28 08:44:47;;;;;;;;;;;;;;;23.87;43.64;101034.47;5395202;32;34593;-83
2023/09/28 08:47:49;;;;;;;;;;;;;;;23.49;44.38;101017.03;5392882;32;34285;-84
2023/09/28 08:50:53;;;;;;;;;;;;;;;22.33;47.25;101031.78;5410475;32;35469;-86
2023/09/28 08:53:59;;;;;;;;;;;;;;;23.10;45.68;101026.53;5411110;32;35729;-79
2023/09/28 08:57:04;;;;;;;;;;;;;;;23.18;45.12;101030.28;5390412;32;33452;-79
2023/09/28 09:00:13;;;;;;;;;;;;;;;24.05;43.42;101025.69;5403291;32;34298;-89
2023/09/28 09:03:17;;;;;;;;;;;;;;;24.05;43.60;101025.69;5414642;32;36055;-88
2023/09/28 09:06:20;;;;;;;;;;;;;;;24.46;42.96;101020.44;5413866;32;33960;-88
2023/09/28 09:09:25;;;;;;;;;;;;;;;23.84;44.16;101024.00;5407358;32;33786;-82
2023/09/28 09:12:32;;;;;;;;;;;;;;;23.36;45.08;101027.09;5410224;32;34785;-77
2023/09/28 09:15:41;;;;;;;;;;;;;;;24.08;43.24;101021.03;5415054;32;34106;-77
2023/09/28 09:18:46;;;;;;;;;;;;;;;23.84;44.34;101021.31;5413810;32;34101;-78
2023/09/28 09:21:51;;;;;;;;;;;;;;;23.73;43.85;101022.22;5413476;32;34345;-80
2023/09/28 09:24:57;;;;;;;;;;;;;;;24.33;42.50;101012.56;5406648;32;35080;-79
2023/09/28 09:28:05;;;;;;;;;;;;;;;25.92;39.30;101014.38;5396565;32;35454;-83
2023/09/28 09:31:08;;;;;;;;;;;;;;;26.63;38.00;101003.16;5412788;32;33196;-78
2023/09/28 09:34:17;;;;;;;;;;;;;;;29.08;33.39;100993.31;5411219;32;33092;-79
2023/09/28 09:37:19;;;;;;;;;;;;;;;30.96;30.31;100993.94;5397072;32;34198;-80
2023/09/28 09:40:22;;;;;;;;;;;;;;;30.83;30.10;100988.25;5405952;32;34431;-83
2023/09/28 09:43:24;;;;;;;;;;;;;;;34.00;25.95;100974.81;5408502;32;33922;-84
2023/09/28 09:46:26;;;;;;;;;;;;;;;33.46;25.96;100982.72;5401263;32;35346;-82
2023/09/28 09:49:31;;;;;;;;;;;;;;;34.27;24.84;100975.84;5412164;32;35022;-86
2023/09/28 09:52:35;;;;;;;;;;;;;;;36.63;22.13;100963.75;5407199;32;35765;-84
2023/09/28 09:55:39;;;;;;;;;;;;;;;34.30;24.35;100969.97;5400861;32;34180;-81
2023/09/28 09:58:49;;;;;;;;;;;;;;;36.42;22.07;100972.25;5410737;32;34293;-81
2023/09/28 10:01:57;;;;;;;;;;;;;;;34.41;24.53;100972.13;5411809;32;34539;-86
2023/09/28 10:05:14;;;;;;;;;;;;;;;35.48;23.28;100970.62;5410968;32;33503;-83
2023/09/28 10:08:17;;;;;;;;;;;;;;;35.58;22.95;100971.06;5410377;32;33151;-83
2023/09/28 10:11:22;;;;;;;;;;;;;;;37.51;20.89;100961.16;5413161;32;33261;-87
2023/09/28 10:14:25;;;;;;;;;;;;;;;37.99;20.05;100967.91;5411894;32;33992;-85
2023/09/28 10:17:31;;;;;;;;;;;;;;;37.76;20.85;100950.19;5411120;32;35424;-85
2023/09/28 10:20:34;;;;;;;;;;;;;;;36.96;21.13;100947.16;5396831;32;35277;-83
2023/09/28 10:23:38;;;;;;;;;;;;;;;35.38;22.72;100954.63;5403897;32;35705;-86
2023/09/28 10:26:48;;;;;;;;;;;;;;;34.28;24.51;100957.59;5392964;32;34456;-82
2023/09/28 10:29:50;;;;;;;;;;;;;;;37.51;20.43;100950.19;5411251;32;35252;-81
2023/09/28 10:32:55;;;;;;;;;;;;;;;34.35;24.42;100948.38;5395577;32;33892;-85
2023/09/28 10:36:14;;;;;;;;;;;;;;;32.97;26.16;100954.31;5410212;32;34370;-85
2023/09/28 10:39:20;;;;;;;;;;;;;;;33.41;25.01;100961.50;5400328;32;34607;-83
2023/09/28 10:42:23;;;;;;;;;;;;;;;34.41;23.80;100947.56;5405976;32;35500;-83
2023/09/28 10:45:32;;;;;;;;;;;;;;;30.42;29.28;100963.16;5409566;32;35370;-88
2023/09/28 10:48:44;;;;;;;;;;;;;;;31.32;28.17;100958.13;5388449;32;35260;-86
2023/09/28 10:51:51;;;;;;;;;;;;;;;32.01;27.47;100952.59;5403006;32;35530;-86
2023/09/28 10:55:06;;;;;;;;;;;;;;;29.74;30.33;100950.91;5406336;32;32996;-81
2023/09/28 10:58:09;;;;;;;;;;;;;;;29.53;30.87;100951.44;5396783;32;35788;-79
2023/09/28 11:01:12;;;;;;;;;;;;;;;29.83;29.73;100949.91;5401163;32;35414;-83
2023/09/28 11:04:15;;;;;;;;;;;;;;;30.33;28.45;100943.34;5404310;32;34197;-84
2023/09/28 11:07:17;;;;;;;;;;;;;;;29.07;30.03;100956.44;5397969;32;34596;-87
2023/09/28 11:10:23;;;;;;;;;;;;;;;29.18;29.69;100951.75;5411227;32;35393;-88
2023/09/28 11:13:26;;;;;;;;;;;;;;;30.55;28.17;100932.75;5395604;32;36004;-84
2023/09/28 11:16:42;;;;;;;;;;;;;;;31.06;26.98;100933.19;5403571;32;34240;-85
2023/09/28 11:19:54;;;;;;;;;;;;;;;30.10;28.22;100921.56;5404658;32;34097;-80
2023/09/28 11:22:57;;;;;;;;;;;;;;;30.57;28.25;100919.84;5402994;32;33487;-83
2023/09/28 11:25:59;;;;;;;;;;;;;;;29.51;29.93;100930.94;5407328;32;32286;-82
2023/09/28 11:29:03;;;;;;;;;;;;;;;28.83;30.71;100927.44;5409555;32;34301;-88
2023/09/28 11:32:08;;;;;;;;;;;;;;;29.38;29.62;100929.56;5412026;32;35349;-89
2023/09/28 11:35:11;;;;;;;;;;;;;;;29.68;29.38;100916.38;5398051;32;34155;-84
2023/09/28 11:38:13;;;;;;;;;;;;;;;29.68;29.53;100917.22;5399663;32;35663;-83
2023/09/28 11:41:23;;;;;;;;;;;;;;;29.00;30.34;100916.69;5408429;32;34345;-87
2023/09/28 11:44:27;;;;;;;;;;;;;;;29.02;29.93;100914.66;5420353;32;34197;-89
2023/09/28 11:47:30;;;;;;;;;;;;;;;28.64;31.14;100913.34;5411097;32;34256;-80
2023/09/28 11:50:32;;;;;;;;;;;;;;;30.15;28.37;100904.78;5392634;32;35236;-79
2023/09/28 11:53:37;;;;;;;;;;;;;;;29.19;29.77;100910.97;5398063;32;35242;-82
2023/09/28 11:56:40;;;;;;;;;;;;;;;30.38;28.58;100896.72;5392822;32;34118;-79
2023/09/28 11:59:47;;;;;;;;;;;;;;;29.65;28.95;100897.78;5395370;32;34112;-87
2023/09/28 12:02:50;;;;;;;;;;;;;;;29.46;29.38;100906.22;5392780;32;34082;-84
2023/09/28 12:05:54;;;;;;;;;;;;;;;30.57;27.63;100899.00;5404645;32;34382;-84
2023/09/28 12:08:56;;;;;;;;;;;;;;;31.17;26.73;100890.16;5403218;32;34408;-81
2023/09/28 12:12:01;;;;;;;;;;;;;;;31.25;27.07;100887.41;5406017;32;35921;-81
2023/09/28 12:15:10;;;;;;;;;;;;;;;29.33;28.94;100906.72;5390405;32;34082;-82
2023/09/28 12:18:14;;;;;;;;;;;;;;;29.18;29.46;100892.19;5396421;32;33992;-84
2023/09/28 12:21:16;;;;;;;;;;;;;;;30.57;27.21;100882.72;5384099;32;34200;-84
2023/09/28 12:24:21;;;;;;;;;;;;;;;29.19;29.19;100893.88;5405723;32;34088;-85
2023/09/28 12:27:24;;;;;;;;;;;;;;;29.37;29.14;100889.16;5406195;32;34175;-82
2023/09/28 12:30:26;;;;;;;;;;;;;;;29.68;29.29;100886.56;5411891;32;34171;-84
2023/09/28 12:33:28;;;;;;;;;;;;;;;29.24;29.17;100891.47;5397867;32;35173;-85
2023/09/28 12:36:32;;;;;;;;;;;;;;;28.68;29.50;100891.22;5405114;32;36550;-82
2023/09/28 12:39:35;;;;;;;;;;;;;;;29.30;28.71;100888.94;5400077;32;34999;-84
2023/09/28 12:42:43;;;;;;;;;;;;;;;29.17;29.06;100893.19;5387135;32;32683;-83
2023/09/28 12:45:45;;;;;;;;;;;;;;;29.66;27.98;100881.34;5378065;32;34216;-83
2023/09/28 12:48:47;;;;;;;;;;;;;;;29.78;27.87;100875.56;5388009;32;34538;-80
2023/09/28 12:51:50;;;;;;;;;;;;;;;30.30;26.84;100875.06;5382019;32;35269;-82
2023/09/28 12:54:53;;;;;;;;;;;;;;;30.40;25.40;100870.25;5375372;32;33864;-81
2023/09/28 12:57:56;;;;;;;;;;;;;;;30.77;25.36;100875.00;5385247;32;35641;-85
2023/09/28 13:01:06;;;;;;;;;;;;;;;31.90;24.32;100866.94;5382452;32;33831;-87
2023/09/28 13:04:10;;;;;;;;;;;;;;;35.10;20.69;100847.41;5382921;32;34912;-90
2023/09/28 13:07:24;;;;;;;;;;;;;;;35.21;20.81;100849.53;5377304;32;33345;-83
2023/09/28 13:10:30;;;;;;;;;;;;;;;34.62;20.89;100842.06;5371857;32;34161;-80
2023/09/28 13:13:39;;;;;;;;;;;;;;;34.04;21.86;100847.94;5397046;32;34005;-81
2023/09/28 13:16:46;;;;;;;;;;;;;;;36.61;19.78;100835.28;5402864;32;35888;-86
2023/09/28 13:19:52;;;;;;;;;;;;;;;39.74;16.33;100825.75;5412368;32;34826;-82
2023/09/28 13:22:57;;;;;;;;;;;;;;;40.70;14.96;100828.75;5397073;32;34625;-86
2023/09/28 13:25:59;;;;;;;;;;;;;;;38.52;16.31;100822.69;5407900;32;34210;-83
2023/09/28 13:29:04;;;;;;;;;;;;;;;40.23;14.89;100828.12;5408374;32;33920;-82
2023/09/28 13:32:11;;;;;;;;;;;;;;;42.54;12.24;100812.91;5412949;32;34060;-82
2023/09/28 13:35:19;;;;;;;;;;;;;;;36.89;16.83;100828.59;5421721;32;33798;-82
2023/09/28 13:38:24;;;;;;;;;;;;;;;35.39;18.79;100816.09;5416486;32;34196;-82
2023/09/28 13:41:29;;;;;;;;;;;;;;;33.40;21.68;100827.16;5425552;32;34364;-80
2023/09/28 13:44:33;;;;;;;;;;;;;;;31.93;23.75;100825.75;5425817;32;33953;-89
2023/09/28 13:47:38;;;;;;;;;;;;;;;33.42;21.31;100827.81;5423615;32;34762;-83
2023/09/28 13:50:41;;;;;;;;;;;;;;;32.99;22.01;100824.31;5420802;32;34318;-84
2023/09/28 13:53:46;;;;;;;;;;;;;;;31.73;23.75;100825.47;5420436;32;34385;-83
2023/09/28 13:56:48;;;;;;;;;;;;;;;30.90;25.24;100828.28;5413079;32;33331;-83
2023/09/28 13:59:56;;;;;;;;;;;;;;;30.48;25.86;100826.84;5421352;32;34450;-82
2023/09/28 14:02:59;;;;;;;;;;;;;;;29.91;26.88;100829.81;5419123;32;34237;-82
2023/09/28 14:06:03;;;;;;;;;;;;;;;29.76;26.67;100823.44;5418120;32;35476;-82
2023/09/28 14:09:10;;;;;;;;;;;;;;;29.98;25.93;100822.66;5421778;32;34871;-79
2023/09/28 14:12:13;;;;;;;;;;;;;;;30.46;25.04;100818.03;5421639;32;35873;-84
2023/09/28 14:15:16;;;;;;;;;;;;;;;29.82;24.79;100815.44;5420964;32;34174;-82
2023/09/28 14:18:21;;;;;;;;;;;;;;;29.36;25.32;100815.16;5424476;32;34294;-87
2023/09/28 14:21:23;;;;;;;;;;;;;;;30.35;24.06;100802.19;5404516;32;34488;-80
2023/09/28 14:24:27;;;;;;;;;;;;;;;30.43;24.96;100808.41;5426601;32;34388;-83
2023/09/28 14:27:30;;;;;;;;;;;;;;;30.29;24.42;100806.47;5415671;32;35580;-85
2023/09/28 14:30:32;;;;;;;;;;;;;;;29.34;25.07;100808.25;5426341;32;34125;-82
2023/09/28 14:33:36;;;;;;;;;;;;;;;29.54;25.36;100798.75;5406342;32;34095;-87
2023/09/28 14:36:38;;;;;;;;;;;;;;;29.59;25.00;100799.09;5407659;32;34238;-86
2023/09/28 14:39:40;;;;;;;;;;;;;;;29.84;24.78;100796.31;5410366;32;34144;-85
2023/09/28 14:42:43;;;;;;;;;;;;;;;29.57;25.46;100803.84;5408463;32;34283;-86
2023/09/28 14:45:45;;;;;;;;;;;;;;;30.19;23.78;100801.25;5411907;32;35862;-82
2023/09/28 14:48:47;;;;;;;;;;;;;;;28.92;26.14;100806.59;5427285;32;36576;-84
2023/09/28 14:51:50;;;;;;;;;;;;;;;28.91;25.43;100810.25;5427531;32;35283;-83
2023/09/28 14:54:52;;;;;;;;;;;;;;;28.99;25.86;100799.50;5428979;32;34542;-83
2023/09/28 14:57:54;;;;;;;;;;;;;;;28.70;26.33;100804.50;5428828;32;33203;-83
2023/09/28 15:00:56;;;;;;;;;;;;;;;29.42;25.59;100800.94;5430671;32;35143;-84
2023/09/28 15:03:59;;;;;;;;;;;;;;;29.70;25.88;100795.19;5413983;32;33904;-84
2023/09/28 15:07:01;;;;;;;;;;;;;;;29.55;26.26;100802.31;5430066;32;35129;-83
2023/09/28 15:10:04;;;;;;;;;;;;;;;29.80;26.76;100800.38;5426644;32;35985;-84
2023/09/28 15:13:07;;;;;;;;;;;;;;;28.59;27.69;100806.50;5426126;32;34212;-83
2023/09/28 15:16:09;;;;;;;;;;;;;;;29.89;26.75;100796.63;5417126;32;32958;-84
2023/09/28 15:19:11;;;;;;;;;;;;;;;29.31;28.48;100789.66;5428038;32;34064;-84
2023/09/28 15:22:13;;;;;;;;;;;;;;;29.58;27.13;100800.13;5431156;32;34567;-82
2023/09/28 15:25:15;;;;;;;;;;;;;;;29.25;27.55;100793.06;5430456;32;34932;-85
2023/09/28 15:28:19;;;;;;;;;;;;;;;29.62;27.40;100792.47;5431849;32;35633;-83
2023/09/28 15:31:21;;;;;;;;;;;;;;;29.47;27.28;100803.16;5431472;32;33175;-83
2023/09/28 15:34:23;;;;;;;;;;;;;;;28.16;29.03;100809.44;5431551;32;34179;-83
2023/09/28 15:37:25;;;;;;;;;;;;;;;27.88;28.75;100811.50;5418303;32;35399;-84
2023/09/28 15:40:31;;;;;;;;;;;;;;;28.77;27.72;100810.94;5416854;32;34061;-84
2023/09/28 15:43:34;;;;;;;;;;;;;;;28.95;28.05;100817.06;5430836;32;33734;-83